Time;durP1;ratioP1;P1;durP2;ratioP2;P2;SDS_P1;SDS_P2;PMS_P1;PMS_P2;Temp;Humidity;BMP_temperature;BMP_pressure;BME280_temperature;BME280_humidity;BME280_pressure;Samples;Min_cycle;Max_cycle;Signal;HPM_P1;HPM_P2
2022/10/09 17:12:57;;;;;;;66.70;35.80;;;;;;;7.81;77.60;100864.50;99432;1333;600538;-77
2022/10/09 17:15:45;;;;;;;48.80;26.60;;;;;;;7.73;77.69;100865.48;102479;1302;59303;-77
2022/10/09 17:18:36;;;;;;;56.40;28.40;;;;;;;7.64;78.16;100864.20;102397;1302;60069;-77
2022/10/09 17:21:25;;;;;;;52.20;26.80;;;;;;;7.53;78.65;100863.70;100171;1299;1003705;-74
2022/10/09 17:24:19;;;;;;;138.90;65.40;;;;;;;7.43;78.96;100863.67;102188;1298;65645;-78
2022/10/09 17:27:08;;;;;;;183.40;82.30;;;;;;;7.33;79.35;100863.11;102151;1301;161472;-77
2022/10/09 17:30:00;;;;;;;114.60;56.90;;;;;;;7.25;80.04;100870.23;102299;1293;59256;-77
2022/10/09 17:33:02;;;;;;;80.30;42.00;;;;;;;7.16;80.44;100868.55;102457;1300;59324;-78
2022/10/09 17:35:50;;;;;;;79.60;41.30;;;;;;;7.08;80.98;100871.27;102313;1301;68916;-79
2022/10/09 17:38:38;;;;;;;55.80;28.30;;;;;;;7.01;81.54;100871.80;102355;1298;68684;-78
2022/10/09 17:41:28;;;;;;;52.50;28.90;;;;;;;6.95;82.00;100873.88;102306;1294;74480;-79
2022/10/09 17:44:16;;;;;;;44.50;23.50;;;;;;;6.89;82.12;100867.46;102363;1302;59352;-77
2022/10/09 17:47:05;;;;;;;38.00;20.70;;;;;;;6.82;82.86;100869.20;102282;1300;60628;-79
2022/10/09 17:49:54;;;;;;;37.00;19.00;;;;;;;6.76;83.05;100868.61;102592;1300;70038;-78
2022/10/09 17:52:43;;;;;;;36.00;21.70;;;;;;;6.71;83.18;100872.94;102042;1302;67476;-78
2022/10/09 17:55:31;;;;;;;47.40;25.80;;;;;;;6.67;83.55;100874.01;102234;1302;72627;-79
2022/10/09 17:58:22;;;;;;;47.50;25.90;;;;;;;6.64;84.08;100870.75;102034;1298;59950;-79
2022/10/09 18:01:11;;;;;;;54.60;30.20;;;;;;;6.65;84.21;100866.98;102302;1303;61930;-77
2022/10/09 18:03:59;;;;;;;45.60;27.50;;;;;;;6.64;84.46;100864.62;102400;1302;71131;-78
2022/10/09 18:06:49;;;;;;;50.90;28.10;;;;;;;6.61;84.35;100867.05;102426;1301;66237;-79
2022/10/09 18:09:38;;;;;;;55.10;29.80;;;;;;;6.58;84.28;100868.95;103874;1302;71497;-78
2022/10/09 18:12:26;;;;;;;63.80;32.90;;;;;;;6.54;84.29;100870.74;104744;1294;59516;-79
2022/10/09 18:15:14;;;;;;;59.10;30.00;;;;;;;6.48;84.45;100869.24;104217;1298;58635;-80
2022/10/09 18:18:04;;;;;;;77.10;37.20;;;;;;;6.44;85.02;100875.42;104490;1297;71401;-77
2022/10/09 18:20:52;;;;;;;97.30;48.80;;;;;;;6.39;84.92;100879.37;102633;1297;68517;-78
2022/10/09 18:23:40;;;;;;;94.80;44.70;;;;;;;6.37;85.20;100878.78;102672;1299;72433;-77
2022/10/09 18:26:28;;;;;;;78.20;40.60;;;;;;;6.34;85.53;100878.90;102455;1295;59386;-79
2022/10/09 18:29:16;;;;;;;76.70;39.60;;;;;;;6.33;85.66;100881.41;102430;1297;59791;-78
2022/10/09 18:32:04;;;;;;;69.40;35.60;;;;;;;6.33;86.14;100885.30;102393;1299;71563;-78
2022/10/09 18:34:52;;;;;;;64.20;33.10;;;;;;;6.31;86.05;100888.74;102438;1294;66434;-79
2022/10/09 18:37:40;;;;;;;64.10;29.80;;;;;;;6.25;86.07;100888.84;102460;1292;73446;-80
2022/10/09 18:40:28;;;;;;;68.30;32.20;;;;;;;6.18;86.26;100883.51;102349;1300;59918;-78
2022/10/09 18:43:24;;;;;;;64.00;32.00;;;;;;;6.14;86.38;100886.33;102398;1291;60902;-78
2022/10/09 18:46:15;;;;;;;71.80;34.30;;;;;;;6.12;86.93;100887.67;102224;1295;71396;-77
2022/10/09 18:49:08;;;;;;;69.10;33.50;;;;;;;6.11;87.21;100888.61;102376;1298;66631;-80
2022/10/09 18:52:00;;;;;;;61.70;30.50;;;;;;;6.09;87.39;100895.19;102728;1299;72533;-78
2022/10/09 18:54:52;;;;;;;66.80;32.80;;;;;;;6.08;87.27;100896.33;102506;1299;59465;-78
2022/10/09 18:57:41;;;;;;;68.80;34.80;;;;;;;6.05;87.44;100898.04;102496;1298;60168;-79
2022/10/09 19:00:30;;;;;;;74.20;38.80;;;;;;;6.01;87.54;100897.70;102500;1297;69772;-77
2022/10/09 19:03:19;;;;;;;76.80;41.30;;;;;;;5.96;87.76;100901.92;102445;1298;66552;-79
2022/10/09 19:06:08;;;;;;;79.90;44.20;;;;;;;5.93;87.45;100899.77;102455;1291;72659;-78
2022/10/09 19:08:59;;;;;;;74.50;38.20;;;;;;;5.89;87.87;100898.55;102566;1297;59357;-79
2022/10/09 19:11:48;;;;;;;67.00;37.00;;;;;;;5.84;87.91;100898.75;102853;1291;60044;-79
2022/10/09 19:14:37;;;;;;;69.30;39.10;;;;;;;5.83;87.95;100897.27;102456;1295;69781;-79
2022/10/09 19:17:26;;;;;;;66.20;39.40;;;;;;;5.81;88.40;100897.15;102453;1278;66297;-79
2022/10/09 19:20:14;;;;;;;65.30;36.50;;;;;;;5.81;89.00;100894.52;101586;1302;1002911;-80
2022/10/09 19:23:03;;;;;;;63.70;35.70;;;;;;;5.80;89.31;100892.92;102346;1298;59299;-78
2022/10/09 19:25:54;;;;;;;67.00;37.10;;;;;;;5.81;89.06;100894.50;102600;1298;60281;-77
2022/10/09 19:28:51;;;;;;;68.10;36.40;;;;;;;5.79;88.82;100893.86;102761;1298;71571;-78
2022/10/09 19:31:40;;;;;;;70.40;33.40;;;;;;;5.77;89.98;100894.16;102278;1291;67516;-79
2022/10/09 19:34:29;;;;;;;65.80;30.70;;;;;;;5.74;90.70;100893.36;102661;1296;72925;-79
2022/10/09 19:37:17;;;;;;;60.90;27.90;;;;;;;5.73;91.16;100896.45;102678;1299;59139;-83
2022/10/09 19:40:07;;;;;;;56.50;25.80;;;;;;;5.72;91.63;100895.05;101681;1299;1003811;-77
2022/10/09 19:42:56;;;;;;;56.60;25.60;;;;;;;5.72;92.01;100892.44;103154;1294;71394;-81
2022/10/09 19:45:48;;;;;;;56.70;27.50;;;;;;;5.75;92.29;100894.96;102468;1294;65313;-81
2022/10/09 19:48:37;;;;;;;53.40;24.10;;;;;;;5.77;92.98;100895.70;102716;1298;71406;-78
2022/10/09 19:51:26;;;;;;;56.00;25.20;;;;;;;5.79;92.77;100894.61;102541;1299;59293;-79
2022/10/09 19:54:14;;;;;;;48.20;22.90;;;;;;;5.78;93.32;100898.16;102506;1291;60933;-81
2022/10/09 19:57:02;;;;;;;53.70;23.90;;;;;;;5.77;93.43;100895.03;102370;1299;71548;-79
2022/10/09 19:59:50;;;;;;;44.60;22.00;;;;;;;5.75;93.34;100893.68;104136;1298;68785;-79
2022/10/09 20:02:39;;;;;;;45.20;22.40;;;;;;;5.76;93.69;100894.73;102800;1291;72348;-80
2022/10/09 20:05:27;;;;;;;43.90;21.60;;;;;;;5.76;94.03;100889.61;102431;1286;59343;-79
2022/10/09 20:08:15;;;;;;;43.70;19.30;;;;;;;5.78;94.23;100891.98;102136;1299;60276;-80
2022/10/09 20:11:04;;;;;;;35.60;17.90;;;;;;;5.80;93.91;100897.17;102435;1298;71106;-81
2022/10/09 20:13:53;;;;;;;33.80;16.10;;;;;;;5.83;94.24;100897.23;102159;1301;69622;-82
2022/10/09 20:16:43;;;;;;;36.50;17.20;;;;;;;5.86;94.12;100893.06;102344;1297;71268;-81
2022/10/09 20:19:31;;;;;;;30.40;14.40;;;;;;;5.87;94.43;100893.19;102219;1297;59274;-80
2022/10/09 20:22:19;;;;;;;36.40;16.00;;;;;;;5.88;94.32;100892.80;102247;1294;60633;-79
2022/10/09 20:25:08;;;;;;;35.40;16.60;;;;;;;5.87;94.51;100890.17;102073;1301;73042;-81
2022/10/09 20:27:56;;;;;;;31.20;15.30;;;;;;;5.85;94.27;100894.31;102389;1292;66455;-80
2022/10/09 20:30:54;;;;;;;32.50;16.70;;;;;;;5.84;94.50;100896.86;102212;1298;71262;-79
2022/10/09 20:33:46;;;;;;;33.70;16.90;;;;;;;5.83;94.50;100897.77;102389;1300;61087;-81
2022/10/09 20:36:37;;;;;;;36.60;17.10;;;;;;;5.81;94.59;100900.13;102756;1297;61838;-79
2022/10/09 20:39:25;;;;;;;34.50;17.10;;;;;;;5.82;94.81;100902.40;102503;1293;71247;-79
2022/10/09 20:42:14;;;;;;;34.00;16.80;;;;;;;5.83;95.33;100901.10;102288;1299;66888;-81
2022/10/09 20:45:02;;;;;;;36.10;17.40;;;;;;;5.84;95.00;100899.15;102261;1297;73485;-80
2022/10/09 20:47:50;;;;;;;38.10;18.00;;;;;;;5.83;94.79;100898.09;102304;1299;59657;-77
2022/10/09 20:50:40;;;;;;;34.70;17.60;;;;;;;5.84;94.51;100904.21;102345;1297;61942;-77
2022/10/09 20:53:28;;;;;;;33.50;15.60;;;;;;;5.84;94.81;100903.33;102231;1292;72853;-79
2022/10/09 20:56:17;;;;;;;39.80;17.90;;;;;;;5.83;95.48;100901.83;102311;1290;67638;-78
2022/10/09 20:59:07;;;;;;;34.10;17.60;;;;;;;5.81;95.06;100899.97;102210;1298;71367;-79
2022/10/09 21:01:55;;;;;;;38.30;17.10;;;;;;;5.80;94.90;100900.02;102247;1299;60883;-81
2022/10/09 21:04:44;;;;;;;33.80;17.00;;;;;;;5.78;94.69;100899.39;102196;1296;62166;-78
2022/10/09 21:07:32;;;;;;;34.80;16.50;;;;;;;5.77;94.26;100900.11;102193;1301;70369;-78
2022/10/09 21:10:20;;;;;;;46.20;21.80;;;;;;;5.77;94.33;100898.38;102240;1291;67613;-78
2022/10/09 21:13:08;;;;;;;39.60;18.00;;;;;;;5.75;93.96;100897.21;102409;1294;72024;-80
2022/10/09 21:15:56;;;;;;;37.60;18.00;;;;;;;5.74;94.16;100894.98;102305;1299;59367;-80
2022/10/09 21:18:45;;;;;;;37.10;17.20;;;;;;;5.73;93.68;100897.65;102244;1291;60876;-77
2022/10/09 21:21:33;;;;;;;41.20;21.10;;;;;;;5.70;93.68;100889.17;102278;1299;73017;-78
2022/10/09 21:24:21;;;;;;;39.20;18.80;;;;;;;5.69;93.54;100891.52;102272;1297;67669;-78
2022/10/09 21:27:09;;;;;;;34.70;17.10;;;;;;;5.66;93.74;100894.83;102506;1298;71150;-78
2022/10/09 21:29:57;;;;;;;35.50;16.30;;;;;;;5.63;93.85;100895.64;102245;1298;60726;-79
2022/10/09 21:32:46;;;;;;;31.00;14.10;;;;;;;5.63;94.72;100899.69;102314;1297;60864;-79
2022/10/09 21:35:54;;;;;;;31.00;15.00;;;;;;;5.65;94.97;100898.00;102354;1297;72807;-79
2022/10/09 21:38:42;;;;;;;29.00;14.10;;;;;;;5.67;94.59;100893.72;102472;1298;68914;-79
2022/10/09 21:41:31;;;;;;;28.50;14.20;;;;;;;5.69;94.89;100895.75;102280;1299;73086;-78
2022/10/09 21:44:20;;;;;;;26.30;12.70;;;;;;;5.69;94.82;100896.96;102308;1299;59277;-79
2022/10/09 21:47:17;;;;;;;29.30;13.80;;;;;;;5.71;94.65;100893.51;102284;1297;59238;-81
2022/10/09 21:50:06;;;;;;;28.20;13.80;;;;;;;5.74;94.59;100893.04;102230;1297;73024;-80
2022/10/09 21:52:55;;;;;;;33.70;14.00;;;;;;;5.74;94.87;100891.09;102384;1299;66330;-78
2022/10/09 21:55:43;;;;;;;27.70;13.10;;;;;;;5.75;94.49;100890.36;102278;1298;71647;-80
2022/10/09 21:58:34;;;;;;;22.90;11.70;;;;;;;5.74;94.20;100893.07;102314;1298;59600;-80
2022/10/09 22:01:22;;;;;;;28.10;12.30;;;;;;;5.73;94.34;100892.73;102281;1298;60181;-79
2022/10/09 22:04:09;;;;;;;30.10;13.70;;;;;;;5.74;94.28;100888.48;102332;1298;72905;-81
2022/10/09 22:06:57;;;;;;;24.50;11.30;;;;;;;5.74;94.02;100884.95;102321;1291;67495;-79
2022/10/09 22:09:46;;;;;;;26.10;12.60;;;;;;;5.75;93.88;100886.30;102385;1298;73277;-79
2022/10/09 22:12:33;;;;;;;25.70;11.40;;;;;;;5.75;94.41;100888.98;103993;1296;59378;-81
2022/10/09 22:15:21;;;;;;;24.00;11.40;;;;;;;5.75;94.39;100883.67;102400;1298;60757;-78
2022/10/09 22:18:11;;;;;;;26.50;10.50;;;;;;;5.74;94.71;100885.63;102274;1297;73625;-75
2022/10/09 22:21:08;;;;;;;28.40;11.60;;;;;;;5.74;94.45;100884.23;102541;1296;67761;-77
2022/10/09 22:23:56;;;;;;;23.30;10.90;;;;;;;5.73;94.44;100887.48;102296;1298;71050;-75
2022/10/09 22:26:46;;;;;;;23.40;9.90;;;;;;;5.71;93.92;100886.15;102283;1305;59362;-77
2022/10/09 22:29:37;;;;;;;23.40;10.00;;;;;;;5.71;94.41;100886.83;102243;1299;59357;-75
2022/10/09 22:32:25;;;;;;;20.50;8.80;;;;;;;5.72;94.53;100884.00;102269;1299;72154;-76
2022/10/09 22:35:13;;;;;;;19.60;9.00;;;;;;;5.72;94.53;100887.14;102281;1299;66805;-76
2022/10/09 22:38:01;;;;;;;24.20;10.00;;;;;;;5.71;95.06;100886.84;102264;1299;73971;-76
2022/10/09 22:40:49;;;;;;;24.90;10.30;;;;;;;5.70;94.77;100884.77;102474;1292;59926;-77
2022/10/09 22:43:40;;;;;;;21.60;9.70;;;;;;;5.67;95.08;100886.30;102278;1298;59721;-76
2022/10/09 22:46:32;;;;;;;19.90;9.50;;;;;;;5.63;94.96;100886.66;102287;1299;73425;-76
2022/10/09 22:49:20;;;;;;;19.00;9.00;;;;;;;5.61;95.67;100890.27;102255;1298;67668;-76
2022/10/09 22:52:07;;;;;;;21.80;9.30;;;;;;;5.57;95.48;100895.20;102266;1298;74063;-77
2022/10/09 22:54:55;;;;;;;22.80;11.00;;;;;;;5.54;95.96;100895.16;102532;1299;59302;-77
2022/10/09 22:57:43;;;;;;;21.50;9.60;;;;;;;5.51;96.02;100897.20;102292;1298;61692;-77
2022/10/09 23:00:35;;;;;;;22.20;9.20;;;;;;;5.49;95.86;100891.88;102325;1299;70566;-75
2022/10/09 23:03:23;;;;;;;23.40;9.90;;;;;;;5.45;96.09;100888.16;102289;1297;69588;-77
2022/10/09 23:06:18;;;;;;;27.10;10.50;;;;;;;5.41;95.79;100902.38;102228;1299;72966;-77
2022/10/09 23:09:09;;;;;;;22.40;9.90;;;;;;;5.38;95.88;100903.24;102299;1296;59454;-76
2022/10/09 23:11:59;;;;;;;20.20;9.40;;;;;;;5.36;96.05;100902.25;102366;1299;59719;-76
2022/10/09 23:14:46;;;;;;;22.00;9.30;;;;;;;5.35;95.70;100901.95;101828;1294;1003068;-76
2022/10/09 23:17:34;;;;;;;19.40;8.40;;;;;;;5.34;95.92;100899.87;102530;1295;67584;-76
2022/10/09 23:20:22;;;;;;;19.30;9.20;;;;;;;5.35;96.29;100896.50;102388;1291;73259;-76
2022/10/09 23:23:10;;;;;;;22.20;9.40;;;;;;;5.35;96.03;100888.23;102311;1299;59521;-76
2022/10/09 23:26:03;;;;;;;21.90;9.30;;;;;;;5.36;95.93;100887.64;102531;1291;60141;-76
2022/10/09 23:28:58;;;;;;;19.10;8.10;;;;;;;5.36;96.05;100889.39;102358;1295;72721;-77
2022/10/09 23:31:47;;;;;;;20.30;8.70;;;;;;;5.37;96.01;100890.08;102451;1299;67564;-76
2022/10/09 23:34:35;;;;;;;21.00;8.50;;;;;;;5.35;95.75;100892.10;102342;1295;74206;-77
2022/10/09 23:37:23;;;;;;;15.50;7.40;;;;;;;5.33;96.23;100889.04;102344;1294;59328;-77
2022/10/09 23:40:11;;;;;;;17.20;7.30;;;;;;;5.31;96.47;100886.27;102257;1291;61648;-77
2022/10/09 23:42:59;;;;;;;16.50;7.20;;;;;;;5.31;96.33;100882.74;102585;1291;71268;-77
2022/10/09 23:45:47;;;;;;;14.20;5.60;;;;;;;5.32;96.43;100884.13;102415;1299;69321;-77
2022/10/09 23:48:35;;;;;;;14.90;6.20;;;;;;;5.36;96.08;100876.41;102328;1298;73044;-78
2022/10/09 23:51:25;;;;;;;13.90;6.10;;;;;;;5.38;96.68;100878.58;102311;1299;59364;-78
2022/10/09 23:54:13;;;;;;;14.70;6.00;;;;;;;5.41;96.26;100876.17;102127;1295;61644;-77
2022/10/09 23:57:01;;;;;;;12.90;5.20;;;;;;;5.42;95.90;100875.76;102308;1299;73557;-75
2022/10/09 23:59:49;;;;;;;12.80;5.20;;;;;;;5.43;95.72;100870.11;102288;1294;68393;-75
